sensor_id;sensor_type;location;lat;lon;timestamp;P1;durP1;ratioP1;P2;durP2;ratioP2
31112;SDS011;17763;48.730;9.136;2023-03-04T00:00:39;50.45;;;26.08;;
31112;SDS011;17763;48.730;9.136;2023-03-04T00:03:07;47.58;;;26.13;;
31112;SDS011;17763;48.730;9.136;2023-03-04T00:05:35;46.80;;;26.10;;
31112;SDS011;17763;48.730;9.136;2023-03-04T00:08:01;49.72;;;29.15;;
31112;SDS011;17763;48.730;9.136;2023-03-04T00:10:27;46.17;;;26.38;;
31112;SDS011;17763;48.730;9.136;2023-03-04T00:12:53;50.00;;;27.05;;
31112;SDS011;17763;48.730;9.136;2023-03-04T00:15:19;49.38;;;26.40;;
31112;SDS011;17763;48.730;9.136;2023-03-04T00:17:45;50.10;;;28.15;;
31112;SDS011;17763;48.730;9.136;2023-03-04T00:20:11;46.72;;;26.27;;
31112;SDS011;17763;48.730;9.136;2023-03-04T00:22:37;50.60;;;26.65;;
31112;SDS011;17763;48.730;9.136;2023-03-04T00:25:03;49.05;;;27.55;;
31112;SDS011;17763;48.730;9.136;2023-03-04T00:27:29;46.83;;;26.00;;
31112;SDS011;17763;48.730;9.136;2023-03-04T00:29:55;42.45;;;25.27;;
31112;SDS011;17763;48.730;9.136;2023-03-04T00:32:21;41.70;;;24.08;;
31112;SDS011;17763;48.730;9.136;2023-03-04T00:34:47;47.92;;;26.73;;
31112;SDS011;17763;48.730;9.136;2023-03-04T00:37:13;44.50;;;25.13;;
31112;SDS011;17763;48.730;9.136;2023-03-04T00:39:38;45.08;;;25.02;;
31112;SDS011;17763;48.730;9.136;2023-03-04T00:42:06;44.75;;;23.65;;
31112;SDS011;17763;48.730;9.136;2023-03-04T00:44:32;44.03;;;25.33;;
31112;SDS011;17763;48.730;9.136;2023-03-04T00:46:58;49.70;;;26.77;;
31112;SDS011;17763;48.730;9.136;2023-03-04T00:49:23;46.30;;;24.73;;
31112;SDS011;17763;48.730;9.136;2023-03-04T00:51:50;44.45;;;25.48;;
31112;SDS011;17763;48.730;9.136;2023-03-04T00:54:15;44.53;;;25.52;;
31112;SDS011;17763;48.730;9.136;2023-03-04T00:56:41;44.58;;;25.33;;
31112;SDS011;17763;48.730;9.136;2023-03-04T00:59:06;48.47;;;25.65;;
31112;SDS011;17763;48.730;9.136;2023-03-04T01:01:32;44.50;;;24.45;;
31112;SDS011;17763;48.730;9.136;2023-03-04T01:03:58;51.75;;;26.77;;
31112;SDS011;17763;48.730;9.136;2023-03-04T01:06:23;43.78;;;23.27;;
31112;SDS011;17763;48.730;9.136;2023-03-04T01:08:49;42.40;;;24.63;;
31112;SDS011;17763;48.730;9.136;2023-03-04T01:11:15;44.47;;;24.98;;
31112;SDS011;17763;48.730;9.136;2023-03-04T01:13:40;48.47;;;25.75;;
31112;SDS011;17763;48.730;9.136;2023-03-04T01:16:06;49.53;;;26.05;;
31112;SDS011;17763;48.730;9.136;2023-03-04T01:18:32;43.33;;;25.02;;
31112;SDS011;17763;48.730;9.136;2023-03-04T01:20:58;43.42;;;24.13;;
31112;SDS011;17763;48.730;9.136;2023-03-04T01:23:24;46.70;;;25.20;;
31112;SDS011;17763;48.730;9.136;2023-03-04T01:25:49;47.15;;;25.77;;
31112;SDS011;17763;48.730;9.136;2023-03-04T01:28:15;45.78;;;25.55;;
31112;SDS011;17763;48.730;9.136;2023-03-04T01:30:40;51.90;;;25.63;;
31112;SDS011;17763;48.730;9.136;2023-03-04T01:33:06;50.17;;;26.65;;
31112;SDS011;17763;48.730;9.136;2023-03-04T01:35:34;50.88;;;27.25;;
31112;SDS011;17763;48.730;9.136;2023-03-04T01:38:00;49.97;;;26.98;;
31112;SDS011;17763;48.730;9.136;2023-03-04T01:40:25;51.10;;;28.92;;
31112;SDS011;17763;48.730;9.136;2023-03-04T01:42:51;48.50;;;26.98;;
31112;SDS011;17763;48.730;9.136;2023-03-04T01:45:17;49.00;;;26.95;;
31112;SDS011;17763;48.730;9.136;2023-03-04T01:47:45;48.65;;;26.25;;
31112;SDS011;17763;48.730;9.136;2023-03-04T01:50:23;47.30;;;26.23;;
31112;SDS011;17763;48.730;9.136;2023-03-04T01:52:56;49.67;;;25.63;;
31112;SDS011;17763;48.730;9.136;2023-03-04T01:55:22;43.53;;;24.90;;
31112;SDS011;17763;48.730;9.136;2023-03-04T01:57:51;45.03;;;24.98;;
31112;SDS011;17763;48.730;9.136;2023-03-04T02:00:25;44.33;;;24.38;;
31112;SDS011;17763;48.730;9.136;2023-03-04T02:02:56;47.58;;;25.23;;
31112;SDS011;17763;48.730;9.136;2023-03-04T02:05:23;47.97;;;24.60;;
31112;SDS011;17763;48.730;9.136;2023-03-04T02:07:52;45.85;;;24.65;;
31112;SDS011;17763;48.730;9.136;2023-03-04T02:10:20;47.70;;;25.70;;
31112;SDS011;17763;48.730;9.136;2023-03-04T02:12:48;42.00;;;24.27;;
31112;SDS011;17763;48.730;9.136;2023-03-04T02:15:14;43.90;;;23.45;;
31112;SDS011;17763;48.730;9.136;2023-03-04T02:17:40;40.67;;;22.30;;
31112;SDS011;17763;48.730;9.136;2023-03-04T02:22:50;42.17;;;23.40;;
31112;SDS011;17763;48.730;9.136;2023-03-04T02:25:34;48.22;;;23.80;;
31112;SDS011;17763;48.730;9.136;2023-03-04T02:28:13;41.72;;;23.98;;
31112;SDS011;17763;48.730;9.136;2023-03-04T02:30:39;44.22;;;23.73;;
31112;SDS011;17763;48.730;9.136;2023-03-04T02:33:04;41.85;;;23.98;;
31112;SDS011;17763;48.730;9.136;2023-03-04T02:35:33;39.22;;;22.23;;
31112;SDS011;17763;48.730;9.136;2023-03-04T02:37:59;41.55;;;23.95;;
31112;SDS011;17763;48.730;9.136;2023-03-04T02:40:28;37.15;;;20.63;;
31112;SDS011;17763;48.730;9.136;2023-03-04T02:42:57;38.90;;;21.98;;
31112;SDS011;17763;48.730;9.136;2023-03-04T02:45:44;41.63;;;22.38;;
31112;SDS011;17763;48.730;9.136;2023-03-04T02:48:15;38.13;;;23.13;;
31112;SDS011;17763;48.730;9.136;2023-03-04T02:53:16;36.20;;;21.37;;
31112;SDS011;17763;48.730;9.136;2023-03-04T02:55:42;40.22;;;22.63;;
31112;SDS011;17763;48.730;9.136;2023-03-04T02:58:09;43.42;;;23.02;;
31112;SDS011;17763;48.730;9.136;2023-03-04T03:00:35;40.95;;;21.90;;
31112;SDS011;17763;48.730;9.136;2023-03-04T03:03:01;39.30;;;22.13;;
31112;SDS011;17763;48.730;9.136;2023-03-04T03:05:28;41.50;;;23.88;;
31112;SDS011;17763;48.730;9.136;2023-03-04T03:07:57;39.33;;;23.33;;
31112;SDS011;17763;48.730;9.136;2023-03-04T03:10:25;41.40;;;22.90;;
31112;SDS011;17763;48.730;9.136;2023-03-04T03:12:54;38.08;;;21.35;;
31112;SDS011;17763;48.730;9.136;2023-03-04T03:15:20;42.47;;;22.92;;
31112;SDS011;17763;48.730;9.136;2023-03-04T03:17:46;39.05;;;21.25;;
31112;SDS011;17763;48.730;9.136;2023-03-04T03:20:14;40.65;;;21.70;;
31112;SDS011;17763;48.730;9.136;2023-03-04T03:22:40;37.30;;;20.38;;
31112;SDS011;17763;48.730;9.136;2023-03-04T03:25:07;41.95;;;22.55;;
31112;SDS011;17763;48.730;9.136;2023-03-04T03:27:34;34.40;;;20.63;;
31112;SDS011;17763;48.730;9.136;2023-03-04T03:30:02;37.05;;;21.92;;
31112;SDS011;17763;48.730;9.136;2023-03-04T03:32:29;43.28;;;23.02;;
31112;SDS011;17763;48.730;9.136;2023-03-04T03:34:55;40.42;;;23.58;;
31112;SDS011;17763;48.730;9.136;2023-03-04T03:37:20;37.38;;;20.55;;
31112;SDS011;17763;48.730;9.136;2023-03-04T03:39:46;36.83;;;20.98;;
31112;SDS011;17763;48.730;9.136;2023-03-04T03:42:14;41.17;;;22.52;;
31112;SDS011;17763;48.730;9.136;2023-03-04T03:44:40;41.10;;;23.30;;
31112;SDS011;17763;48.730;9.136;2023-03-04T03:47:10;39.37;;;21.77;;
31112;SDS011;17763;48.730;9.136;2023-03-04T03:49:36;39.58;;;22.63;;
31112;SDS011;17763;48.730;9.136;2023-03-04T03:52:02;37.28;;;21.67;;
31112;SDS011;17763;48.730;9.136;2023-03-04T03:54:28;40.53;;;20.73;;
31112;SDS011;17763;48.730;9.136;2023-03-04T03:56:56;39.75;;;22.48;;
31112;SDS011;17763;48.730;9.136;2023-03-04T03:59:21;41.83;;;23.40;;
31112;SDS011;17763;48.730;9.136;2023-03-04T04:01:48;43.72;;;22.50;;
31112;SDS011;17763;48.730;9.136;2023-03-04T04:04:16;40.30;;;22.35;;
31112;SDS011;17763;48.730;9.136;2023-03-04T04:06:44;44.33;;;23.23;;
31112;SDS011;17763;48.730;9.136;2023-03-04T04:09:09;39.53;;;21.40;;
31112;SDS011;17763;48.730;9.136;2023-03-04T04:11:35;37.58;;;21.90;;
31112;SDS011;17763;48.730;9.136;2023-03-04T04:14:01;35.67;;;21.00;;
31112;SDS011;17763;48.730;9.136;2023-03-04T04:16:29;42.42;;;24.05;;
31112;SDS011;17763;48.730;9.136;2023-03-04T04:18:56;41.45;;;21.70;;
31112;SDS011;17763;48.730;9.136;2023-03-04T04:21:21;35.65;;;21.15;;
31112;SDS011;17763;48.730;9.136;2023-03-04T04:23:47;41.22;;;22.52;;
31112;SDS011;17763;48.730;9.136;2023-03-04T04:26:13;36.42;;;20.70;;
31112;SDS011;17763;48.730;9.136;2023-03-04T04:28:38;35.40;;;20.45;;
31112;SDS011;17763;48.730;9.136;2023-03-04T04:31:07;37.92;;;21.13;;
31112;SDS011;17763;48.730;9.136;2023-03-04T04:33:34;34.65;;;20.85;;
31112;SDS011;17763;48.730;9.136;2023-03-04T04:36:00;36.33;;;20.50;;
31112;SDS011;17763;48.730;9.136;2023-03-04T04:38:27;40.35;;;21.30;;
31112;SDS011;17763;48.730;9.136;2023-03-04T04:40:55;43.55;;;22.08;;
31112;SDS011;17763;48.730;9.136;2023-03-04T04:43:25;38.63;;;19.67;;
31112;SDS011;17763;48.730;9.136;2023-03-04T04:45:50;36.38;;;21.88;;
31112;SDS011;17763;48.730;9.136;2023-03-04T04:48:16;36.60;;;21.17;;
31112;SDS011;17763;48.730;9.136;2023-03-04T04:50:42;36.20;;;20.98;;
31112;SDS011;17763;48.730;9.136;2023-03-04T04:53:10;37.17;;;21.83;;
31112;SDS011;17763;48.730;9.136;2023-03-04T04:58:05;33.80;;;20.48;;
31112;SDS011;17763;48.730;9.136;2023-03-04T05:00:34;36.28;;;21.15;;
31112;SDS011;17763;48.730;9.136;2023-03-04T05:02:59;42.85;;;21.50;;
31112;SDS011;17763;48.730;9.136;2023-03-04T05:05:25;39.83;;;22.20;;
31112;SDS011;17763;48.730;9.136;2023-03-04T05:07:51;36.53;;;20.55;;
31112;SDS011;17763;48.730;9.136;2023-03-04T05:10:16;39.67;;;22.15;;
31112;SDS011;17763;48.730;9.136;2023-03-04T05:12:43;40.08;;;21.85;;
31112;SDS011;17763;48.730;9.136;2023-03-04T05:15:11;38.33;;;22.60;;
31112;SDS011;17763;48.730;9.136;2023-03-04T05:17:36;39.75;;;20.77;;
31112;SDS011;17763;48.730;9.136;2023-03-04T05:20:02;38.72;;;21.50;;
31112;SDS011;17763;48.730;9.136;2023-03-04T05:22:28;36.80;;;20.73;;
31112;SDS011;17763;48.730;9.136;2023-03-04T05:24:54;39.13;;;21.38;;
31112;SDS011;17763;48.730;9.136;2023-03-04T05:27:20;40.72;;;22.52;;
31112;SDS011;17763;48.730;9.136;2023-03-04T05:29:45;38.80;;;21.85;;
31112;SDS011;17763;48.730;9.136;2023-03-04T05:32:13;42.67;;;21.73;;
31112;SDS011;17763;48.730;9.136;2023-03-04T05:34:39;40.50;;;22.45;;
31112;SDS011;17763;48.730;9.136;2023-03-04T05:37:07;39.83;;;22.15;;
31112;SDS011;17763;48.730;9.136;2023-03-04T05:39:33;39.63;;;21.70;;
31112;SDS011;17763;48.730;9.136;2023-03-04T05:41:58;42.05;;;23.30;;
31112;SDS011;17763;48.730;9.136;2023-03-04T05:44:24;45.90;;;24.00;;
31112;SDS011;17763;48.730;9.136;2023-03-04T05:46:49;39.60;;;22.70;;
31112;SDS011;17763;48.730;9.136;2023-03-04T05:49:15;39.85;;;23.10;;
31112;SDS011;17763;48.730;9.136;2023-03-04T05:51:41;42.00;;;22.80;;
31112;SDS011;17763;48.730;9.136;2023-03-04T05:54:06;43.90;;;23.40;;
31112;SDS011;17763;48.730;9.136;2023-03-04T05:56:32;45.22;;;24.05;;
31112;SDS011;17763;48.730;9.136;2023-03-04T05:58:58;38.92;;;22.20;;
31112;SDS011;17763;48.730;9.136;2023-03-04T06:01:24;41.92;;;22.38;;
31112;SDS011;17763;48.730;9.136;2023-03-04T06:03:50;42.00;;;22.60;;
31112;SDS011;17763;48.730;9.136;2023-03-04T06:06:16;42.42;;;23.58;;
31112;SDS011;17763;48.730;9.136;2023-03-04T06:08:44;40.42;;;22.02;;
31112;SDS011;17763;48.730;9.136;2023-03-04T06:11:12;43.30;;;23.33;;
31112;SDS011;17763;48.730;9.136;2023-03-04T06:13:37;43.97;;;23.85;;
31112;SDS011;17763;48.730;9.136;2023-03-04T06:16:05;46.40;;;22.90;;
31112;SDS011;17763;48.730;9.136;2023-03-04T06:18:31;41.72;;;23.05;;
31112;SDS011;17763;48.730;9.136;2023-03-04T06:20:57;41.75;;;22.55;;
31112;SDS011;17763;48.730;9.136;2023-03-04T06:23:27;43.50;;;22.63;;
31112;SDS011;17763;48.730;9.136;2023-03-04T06:25:53;41.90;;;21.52;;
31112;SDS011;17763;48.730;9.136;2023-03-04T06:28:22;39.40;;;21.00;;
31112;SDS011;17763;48.730;9.136;2023-03-04T06:30:51;47.90;;;22.88;;
31112;SDS011;17763;48.730;9.136;2023-03-04T06:33:23;42.58;;;22.92;;
31112;SDS011;17763;48.730;9.136;2023-03-04T06:35:54;46.13;;;23.35;;
31112;SDS011;17763;48.730;9.136;2023-03-04T06:38:22;48.15;;;24.90;;
31112;SDS011;17763;48.730;9.136;2023-03-04T06:40:48;41.08;;;22.85;;
31112;SDS011;17763;48.730;9.136;2023-03-04T06:43:14;45.00;;;22.58;;
31112;SDS011;17763;48.730;9.136;2023-03-04T06:45:39;44.80;;;22.90;;
31112;SDS011;17763;48.730;9.136;2023-03-04T06:48:07;43.85;;;21.52;;
31112;SDS011;17763;48.730;9.136;2023-03-04T06:50:36;43.70;;;23.08;;
31112;SDS011;17763;48.730;9.136;2023-03-04T06:53:03;46.65;;;24.58;;
31112;SDS011;17763;48.730;9.136;2023-03-04T06:55:29;45.63;;;21.33;;
31112;SDS011;17763;48.730;9.136;2023-03-04T06:57:55;44.20;;;22.42;;
31112;SDS011;17763;48.730;9.136;2023-03-04T07:00:23;45.63;;;23.83;;
31112;SDS011;17763;48.730;9.136;2023-03-04T07:02:51;42.28;;;23.00;;
31112;SDS011;17763;48.730;9.136;2023-03-04T07:05:17;41.63;;;21.95;;
31112;SDS011;17763;48.730;9.136;2023-03-04T07:07:45;47.28;;;23.45;;
31112;SDS011;17763;48.730;9.136;2023-03-04T07:10:13;43.22;;;23.45;;
31112;SDS011;17763;48.730;9.136;2023-03-04T07:12:39;37.97;;;21.00;;
31112;SDS011;17763;48.730;9.136;2023-03-04T07:15:05;41.13;;;22.35;;
31112;SDS011;17763;48.730;9.136;2023-03-04T07:17:31;42.50;;;20.98;;
31112;SDS011;17763;48.730;9.136;2023-03-04T07:19:59;43.65;;;21.65;;
31112;SDS011;17763;48.730;9.136;2023-03-04T07:22:25;44.33;;;22.17;;
31112;SDS011;17763;48.730;9.136;2023-03-04T07:24:50;42.63;;;21.08;;
31112;SDS011;17763;48.730;9.136;2023-03-04T07:27:18;45.95;;;22.63;;
31112;SDS011;17763;48.730;9.136;2023-03-04T07:29:44;42.45;;;22.60;;
31112;SDS011;17763;48.730;9.136;2023-03-04T07:32:09;40.72;;;21.73;;
31112;SDS011;17763;48.730;9.136;2023-03-04T07:34:35;45.00;;;22.17;;
31112;SDS011;17763;48.730;9.136;2023-03-04T07:37:01;43.38;;;23.23;;
31112;SDS011;17763;48.730;9.136;2023-03-04T07:39:27;45.25;;;22.75;;
31112;SDS011;17763;48.730;9.136;2023-03-04T07:41:53;47.05;;;24.88;;
31112;SDS011;17763;48.730;9.136;2023-03-04T07:44:19;44.42;;;22.65;;
31112;SDS011;17763;48.730;9.136;2023-03-04T07:46:45;42.38;;;22.63;;
31112;SDS011;17763;48.730;9.136;2023-03-04T07:49:13;46.83;;;22.92;;
31112;SDS011;17763;48.730;9.136;2023-03-04T07:51:38;45.50;;;21.77;;
31112;SDS011;17763;48.730;9.136;2023-03-04T07:54:04;44.97;;;23.52;;
31112;SDS011;17763;48.730;9.136;2023-03-04T07:56:31;42.55;;;20.95;;
31112;SDS011;17763;48.730;9.136;2023-03-04T07:58:57;42.15;;;21.98;;
31112;SDS011;17763;48.730;9.136;2023-03-04T08:01:28;49.63;;;23.17;;
31112;SDS011;17763;48.730;9.136;2023-03-04T08:03:55;41.97;;;21.67;;
31112;SDS011;17763;48.730;9.136;2023-03-04T08:06:21;43.10;;;22.52;;
31112;SDS011;17763;48.730;9.136;2023-03-04T08:08:48;43.80;;;22.80;;
31112;SDS011;17763;48.730;9.136;2023-03-04T08:11:15;42.58;;;22.17;;
31112;SDS011;17763;48.730;9.136;2023-03-04T08:13:44;44.65;;;23.15;;
31112;SDS011;17763;48.730;9.136;2023-03-04T08:16:11;46.53;;;23.67;;
31112;SDS011;17763;48.730;9.136;2023-03-04T08:18:40;41.72;;;21.70;;
31112;SDS011;17763;48.730;9.136;2023-03-04T08:21:08;43.83;;;24.02;;
31112;SDS011;17763;48.730;9.136;2023-03-04T08:23:35;44.33;;;23.10;;
31112;SDS011;17763;48.730;9.136;2023-03-04T08:26:04;47.45;;;22.80;;
31112;SDS011;17763;48.730;9.136;2023-03-04T08:28:35;44.97;;;22.58;;
31112;SDS011;17763;48.730;9.136;2023-03-04T08:31:02;44.90;;;21.95;;
31112;SDS011;17763;48.730;9.136;2023-03-04T08:33:28;41.95;;;21.90;;
31112;SDS011;17763;48.730;9.136;2023-03-04T08:35:53;39.53;;;22.77;;
31112;SDS011;17763;48.730;9.136;2023-03-04T08:38:22;41.70;;;21.92;;
31112;SDS011;17763;48.730;9.136;2023-03-04T08:40:51;49.83;;;23.00;;
31112;SDS011;17763;48.730;9.136;2023-03-04T08:43:18;48.70;;;23.75;;
31112;SDS011;17763;48.730;9.136;2023-03-04T08:45:47;41.45;;;22.00;;
31112;SDS011;17763;48.730;9.136;2023-03-04T08:48:13;44.50;;;21.80;;
31112;SDS011;17763;48.730;9.136;2023-03-04T08:50:39;40.42;;;21.00;;
31112;SDS011;17763;48.730;9.136;2023-03-04T08:53:04;42.80;;;22.60;;
31112;SDS011;17763;48.730;9.136;2023-03-04T08:55:32;45.47;;;22.75;;
31112;SDS011;17763;48.730;9.136;2023-03-04T08:57:58;47.17;;;23.65;;
31112;SDS011;17763;48.730;9.136;2023-03-04T09:00:26;44.17;;;22.08;;
31112;SDS011;17763;48.730;9.136;2023-03-04T09:02:52;41.28;;;22.30;;
31112;SDS011;17763;48.730;9.136;2023-03-04T09:05:19;44.38;;;22.02;;
31112;SDS011;17763;48.730;9.136;2023-03-04T09:07:45;44.67;;;22.65;;
31112;SDS011;17763;48.730;9.136;2023-03-04T09:10:11;45.45;;;21.67;;
31112;SDS011;17763;48.730;9.136;2023-03-04T09:12:37;43.63;;;21.63;;
31112;SDS011;17763;48.730;9.136;2023-03-04T09:15:03;40.40;;;21.33;;
31112;SDS011;17763;48.730;9.136;2023-03-04T09:17:30;41.85;;;22.17;;
31112;SDS011;17763;48.730;9.136;2023-03-04T09:19:58;45.72;;;22.80;;
31112;SDS011;17763;48.730;9.136;2023-03-04T09:22:24;49.47;;;24.15;;
31112;SDS011;17763;48.730;9.136;2023-03-04T09:24:50;47.45;;;22.48;;
31112;SDS011;17763;48.730;9.136;2023-03-04T09:27:15;48.58;;;23.52;;
31112;SDS011;17763;48.730;9.136;2023-03-04T09:29:41;44.05;;;23.58;;
31112;SDS011;17763;48.730;9.136;2023-03-04T09:32:08;42.97;;;22.35;;
31112;SDS011;17763;48.730;9.136;2023-03-04T09:34:34;42.55;;;21.27;;
31112;SDS011;17763;48.730;9.136;2023-03-04T09:36:59;38.65;;;20.83;;
31112;SDS011;17763;48.730;9.136;2023-03-04T09:39:28;40.00;;;21.90;;
31112;SDS011;17763;48.730;9.136;2023-03-04T09:41:54;43.63;;;22.20;;
31112;SDS011;17763;48.730;9.136;2023-03-04T09:46:50;42.05;;;23.25;;
31112;SDS011;17763;48.730;9.136;2023-03-04T09:49:16;42.88;;;22.58;;
31112;SDS011;17763;48.730;9.136;2023-03-04T09:54:59;42.22;;;22.60;;
31112;SDS011;17763;48.730;9.136;2023-03-04T10:05:25;39.00;;;22.55;;
31112;SDS011;17763;48.730;9.136;2023-03-04T10:07:56;45.47;;;27.38;;
31112;SDS011;17763;48.730;9.136;2023-03-04T10:10:25;48.75;;;25.98;;
31112;SDS011;17763;48.730;9.136;2023-03-04T10:12:57;48.55;;;26.10;;
31112;SDS011;17763;48.730;9.136;2023-03-04T10:15:38;45.13;;;26.10;;
31112;SDS011;17763;48.730;9.136;2023-03-04T10:23:27;49.58;;;28.30;;
31112;SDS011;17763;48.730;9.136;2023-03-04T10:25:53;59.15;;;30.55;;
31112;SDS011;17763;48.730;9.136;2023-03-04T10:28:29;57.47;;;29.25;;
31112;SDS011;17763;48.730;9.136;2023-03-04T10:31:04;50.85;;;27.70;;
31112;SDS011;17763;48.730;9.136;2023-03-04T10:33:47;45.85;;;26.85;;
31112;SDS011;17763;48.730;9.136;2023-03-04T10:38:59;53.28;;;28.67;;
31112;SDS011;17763;48.730;9.136;2023-03-04T10:41:32;50.22;;;27.85;;
31112;SDS011;17763;48.730;9.136;2023-03-04T10:46:36;49.30;;;29.02;;
31112;SDS011;17763;48.730;9.136;2023-03-04T10:49:03;55.10;;;30.77;;
31112;SDS011;17763;48.730;9.136;2023-03-04T10:51:31;48.25;;;28.23;;
31112;SDS011;17763;48.730;9.136;2023-03-04T10:54:02;53.22;;;28.98;;
31112;SDS011;17763;48.730;9.136;2023-03-04T10:56:46;57.83;;;30.38;;
31112;SDS011;17763;48.730;9.136;2023-03-04T11:02:12;51.78;;;27.92;;
31112;SDS011;17763;48.730;9.136;2023-03-04T11:04:40;60.83;;;30.87;;
31112;SDS011;17763;48.730;9.136;2023-03-04T11:07:09;53.67;;;29.92;;
31112;SDS011;17763;48.730;9.136;2023-03-04T11:09:35;56.75;;;31.52;;
31112;SDS011;17763;48.730;9.136;2023-03-04T11:12:08;55.47;;;31.02;;
31112;SDS011;17763;48.730;9.136;2023-03-04T11:14:49;60.05;;;32.50;;
31112;SDS011;17763;48.730;9.136;2023-03-04T11:19:44;61.03;;;32.63;;
31112;SDS011;17763;48.730;9.136;2023-03-04T11:22:16;61.55;;;32.22;;
31112;SDS011;17763;48.730;9.136;2023-03-04T11:24:44;66.85;;;34.17;;
31112;SDS011;17763;48.730;9.136;2023-03-04T11:27:29;63.15;;;35.00;;
31112;SDS011;17763;48.730;9.136;2023-03-04T11:30:03;61.65;;;32.95;;
31112;SDS011;17763;48.730;9.136;2023-03-04T11:32:50;69.15;;;34.25;;
31112;SDS011;17763;48.730;9.136;2023-03-04T11:35:38;69.80;;;35.50;;
31112;SDS011;17763;48.730;9.136;2023-03-04T11:38:17;68.70;;;36.40;;
31112;SDS011;17763;48.730;9.136;2023-03-04T11:40:58;70.45;;;36.78;;
31112;SDS011;17763;48.730;9.136;2023-03-04T11:43:37;69.10;;;36.67;;
31112;SDS011;17763;48.730;9.136;2023-03-04T11:53:39;58.20;;;31.27;;
31112;SDS011;17763;48.730;9.136;2023-03-04T12:04:47;61.10;;;33.97;;
31112;SDS011;17763;48.730;9.136;2023-03-04T12:10:02;57.92;;;33.45;;
31112;SDS011;17763;48.730;9.136;2023-03-04T12:12:53;64.38;;;35.50;;
31112;SDS011;17763;48.730;9.136;2023-03-04T12:21:22;65.38;;;35.10;;
31112;SDS011;17763;48.730;9.136;2023-03-04T12:24:13;60.88;;;33.38;;
31112;SDS011;17763;48.730;9.136;2023-03-04T12:37:42;57.45;;;32.08;;
31112;SDS011;17763;48.730;9.136;2023-03-04T12:43:07;55.15;;;32.50;;
31112;SDS011;17763;48.730;9.136;2023-03-04T12:46:05;60.30;;;32.72;;
31112;SDS011;17763;48.730;9.136;2023-03-04T12:51:31;57.58;;;32.13;;
31112;SDS011;17763;48.730;9.136;2023-03-04T12:59:36;57.30;;;31.08;;
31112;SDS011;17763;48.730;9.136;2023-03-04T13:02:30;52.60;;;28.85;;
31112;SDS011;17763;48.730;9.136;2023-03-04T13:08:33;58.50;;;32.88;;
31112;SDS011;17763;48.730;9.136;2023-03-04T13:14:06;56.13;;;30.48;;
31112;SDS011;17763;48.730;9.136;2023-03-04T13:16:40;56.15;;;31.92;;
31112;SDS011;17763;48.730;9.136;2023-03-04T13:38:29;64.72;;;33.75;;
31112;SDS011;17763;48.730;9.136;2023-03-04T13:44:28;68.05;;;34.40;;
31112;SDS011;17763;48.730;9.136;2023-03-04T13:47:05;69.75;;;35.42;;
31112;SDS011;17763;48.730;9.136;2023-03-04T13:49:36;69.43;;;33.03;;
31112;SDS011;17763;48.730;9.136;2023-03-04T13:52:31;64.55;;;32.97;;
31112;SDS011;17763;48.730;9.136;2023-03-04T13:57:57;68.20;;;33.72;;
31112;SDS011;17763;48.730;9.136;2023-03-04T14:00:26;68.55;;;32.65;;
31112;SDS011;17763;48.730;9.136;2023-03-04T14:02:52;58.50;;;31.73;;
31112;SDS011;17763;48.730;9.136;2023-03-04T14:05:20;62.95;;;32.17;;
31112;SDS011;17763;48.730;9.136;2023-03-04T14:07:48;60.17;;;30.83;;
31112;SDS011;17763;48.730;9.136;2023-03-04T14:10:22;59.95;;;28.42;;
31112;SDS011;17763;48.730;9.136;2023-03-04T14:12:50;56.45;;;27.08;;
31112;SDS011;17763;48.730;9.136;2023-03-04T14:17:55;59.40;;;28.00;;
31112;SDS011;17763;48.730;9.136;2023-03-04T14:20:27;48.70;;;27.83;;
31112;SDS011;17763;48.730;9.136;2023-03-04T14:22:54;49.15;;;26.10;;
31112;SDS011;17763;48.730;9.136;2023-03-04T14:25:25;57.55;;;26.35;;
31112;SDS011;17763;48.730;9.136;2023-03-04T14:28:05;56.92;;;27.90;;
31112;SDS011;17763;48.730;9.136;2023-03-04T14:30:37;51.80;;;25.55;;
31112;SDS011;17763;48.730;9.136;2023-03-04T14:33:05;54.30;;;25.90;;
31112;SDS011;17763;48.730;9.136;2023-03-04T14:35:39;48.38;;;25.42;;
31112;SDS011;17763;48.730;9.136;2023-03-04T14:38:33;46.90;;;24.13;;
31112;SDS011;17763;48.730;9.136;2023-03-04T14:41:06;45.53;;;24.80;;
31112;SDS011;17763;48.730;9.136;2023-03-04T14:46:59;53.28;;;25.05;;
31112;SDS011;17763;48.730;9.136;2023-03-04T14:49:33;59.47;;;25.98;;
31112;SDS011;17763;48.730;9.136;2023-03-04T14:52:00;52.67;;;26.42;;
31112;SDS011;17763;48.730;9.136;2023-03-04T15:02:49;46.83;;;24.98;;
31112;SDS011;17763;48.730;9.136;2023-03-04T15:05:27;55.55;;;26.38;;
31112;SDS011;17763;48.730;9.136;2023-03-04T15:07:59;64.60;;;28.25;;
31112;SDS011;17763;48.730;9.136;2023-03-04T15:10:26;64.10;;;29.40;;
31112;SDS011;17763;48.730;9.136;2023-03-04T15:12:55;53.85;;;26.88;;
31112;SDS011;17763;48.730;9.136;2023-03-04T15:17:58;67.10;;;29.73;;
31112;SDS011;17763;48.730;9.136;2023-03-04T15:20:26;55.08;;;28.10;;
31112;SDS011;17763;48.730;9.136;2023-03-04T15:22:58;67.15;;;29.00;;
31112;SDS011;17763;48.730;9.136;2023-03-04T15:25:28;63.28;;;29.73;;
31112;SDS011;17763;48.730;9.136;2023-03-04T15:27:54;61.85;;;27.92;;
31112;SDS011;17763;48.730;9.136;2023-03-04T15:30:28;58.28;;;27.88;;
31112;SDS011;17763;48.730;9.136;2023-03-04T15:32:56;56.78;;;27.40;;
31112;SDS011;17763;48.730;9.136;2023-03-04T15:35:27;59.22;;;27.50;;
31112;SDS011;17763;48.730;9.136;2023-03-04T15:37:55;48.42;;;22.83;;
31112;SDS011;17763;48.730;9.136;2023-03-04T15:40:30;61.42;;;26.77;;
31112;SDS011;17763;48.730;9.136;2023-03-04T15:42:59;56.08;;;26.23;;
31112;SDS011;17763;48.730;9.136;2023-03-04T15:45:34;52.05;;;25.13;;
31112;SDS011;17763;48.730;9.136;2023-03-04T15:48:02;56.92;;;26.00;;
31112;SDS011;17763;48.730;9.136;2023-03-04T15:50:32;50.72;;;25.83;;
31112;SDS011;17763;48.730;9.136;2023-03-04T15:53:00;53.78;;;24.98;;
31112;SDS011;17763;48.730;9.136;2023-03-04T15:55:27;55.45;;;26.33;;
31112;SDS011;17763;48.730;9.136;2023-03-04T15:57:55;52.72;;;25.58;;
31112;SDS011;17763;48.730;9.136;2023-03-04T16:00:22;52.80;;;26.13;;
31112;SDS011;17763;48.730;9.136;2023-03-04T16:02:48;50.88;;;23.85;;
31112;SDS011;17763;48.730;9.136;2023-03-04T16:05:14;49.40;;;23.60;;
31112;SDS011;17763;48.730;9.136;2023-03-04T16:07:41;51.63;;;25.13;;
31112;SDS011;17763;48.730;9.136;2023-03-04T16:10:13;49.35;;;23.92;;
31112;SDS011;17763;48.730;9.136;2023-03-04T16:12:51;55.03;;;24.17;;
31112;SDS011;17763;48.730;9.136;2023-03-04T16:15:19;53.38;;;24.27;;
31112;SDS011;17763;48.730;9.136;2023-03-04T16:17:46;51.58;;;21.25;;
31112;SDS011;17763;48.730;9.136;2023-03-04T16:20:16;49.90;;;24.08;;
31112;SDS011;17763;48.730;9.136;2023-03-04T16:22:44;49.15;;;23.20;;
31112;SDS011;17763;48.730;9.136;2023-03-04T16:25:13;46.35;;;22.02;;
31112;SDS011;17763;48.730;9.136;2023-03-04T16:27:40;52.03;;;22.88;;
31112;SDS011;17763;48.730;9.136;2023-03-04T16:30:10;47.65;;;22.77;;
31112;SDS011;17763;48.730;9.136;2023-03-04T16:32:40;43.78;;;22.42;;
31112;SDS011;17763;48.730;9.136;2023-03-04T16:35:08;47.70;;;23.10;;
31112;SDS011;17763;48.730;9.136;2023-03-04T16:37:34;57.53;;;25.52;;
31112;SDS011;17763;48.730;9.136;2023-03-04T16:40:05;47.25;;;22.98;;
31112;SDS011;17763;48.730;9.136;2023-03-04T16:42:33;56.67;;;25.35;;